createdAt,value
2022-12-25T00:02:11.229Z,0.63
2022-12-25T00:05:15.434Z,0.80
2022-12-25T00:08:18.556Z,0.80
2022-12-25T00:11:22.332Z,0.67
2022-12-25T00:14:25.483Z,0.90
2022-12-25T00:17:29.199Z,0.70
2022-12-25T00:20:33.470Z,0.50
2022-12-25T00:23:37.417Z,0.80
2022-12-25T00:26:40.310Z,0.77
2022-12-25T00:29:43.300Z,0.90
2022-12-25T00:32:46.121Z,0.90
2022-12-25T00:35:59.934Z,0.63
2022-12-25T00:39:03.306Z,0.53
2022-12-25T00:42:21.831Z,0.80
2022-12-25T00:45:25.231Z,0.90
2022-12-25T00:48:29.867Z,0.87
2022-12-25T00:51:34.178Z,0.70
2022-12-25T00:54:37.265Z,0.70
2022-12-25T00:57:40.140Z,1.00
2022-12-25T01:00:43.062Z,0.80
2022-12-25T01:03:46.412Z,1.07
2022-12-25T01:06:50.624Z,0.90
2022-12-25T01:10:11.393Z,1.00
2022-12-25T01:13:14.627Z,1.00
2022-12-25T01:16:17.680Z,0.83
2022-12-25T01:19:20.807Z,0.70
2022-12-25T01:22:25.147Z,0.90
2022-12-25T01:25:28.077Z,1.00
2022-12-25T01:28:30.903Z,1.20
2022-12-25T01:31:33.812Z,1.07
2022-12-25T01:34:36.642Z,2.07
2022-12-25T01:37:41.384Z,1.00
2022-12-25T01:40:44.749Z,0.60
2022-12-25T01:44:03.232Z,0.80
2022-12-25T01:47:07.966Z,0.80
2022-12-25T01:50:11.397Z,1.10
2022-12-25T01:53:16.250Z,1.10
2022-12-25T01:56:19.577Z,1.30
2022-12-25T01:59:25.888Z,1.50
2022-12-25T02:02:29.983Z,1.10
2022-12-25T02:05:34.268Z,1.27
2022-12-25T02:08:38.900Z,1.70
2022-12-25T02:12:00.234Z,1.27
2022-12-25T02:15:06.662Z,1.67
2022-12-25T02:18:18.865Z,1.83
2022-12-25T02:21:44.577Z,1.40
2022-12-25T02:25:05.007Z,1.60
2022-12-25T02:28:16.404Z,1.93
2022-12-25T02:31:28.348Z,1.43
2022-12-25T02:34:39.131Z,1.70
2022-12-25T02:37:50.945Z,1.50
2022-12-25T02:40:58.267Z,1.50
2022-12-25T02:44:23.908Z,1.60
2022-12-25T02:47:45.371Z,1.70
2022-12-25T02:51:06.493Z,1.70
2022-12-25T02:54:31.153Z,1.70
2022-12-25T02:58:03.033Z,2.13
2022-12-25T03:01:28.079Z,2.23
2022-12-25T03:04:49.621Z,2.20
2022-12-25T03:07:53.168Z,2.03
2022-12-25T03:11:19.159Z,2.40
2022-12-25T03:14:39.756Z,2.00
2022-12-25T03:17:44.265Z,1.57
2022-12-25T03:21:04.683Z,2.73
2022-12-25T03:24:33.506Z,2.10
2022-12-25T03:27:36.641Z,2.03
2022-12-25T03:31:03.574Z,2.10
2022-12-25T03:34:51.919Z,1.90
2022-12-25T03:38:46.446Z,2.00
2022-12-25T03:42:11.689Z,1.57
2022-12-25T03:45:41.787Z,1.80
2022-12-25T03:49:08.942Z,1.50
2022-12-25T03:52:34.760Z,1.40
2022-12-25T03:55:54.736Z,1.73
2022-12-25T03:59:31.257Z,1.20
2022-12-25T04:02:51.833Z,1.17
2022-12-25T04:06:12.459Z,1.60
2022-12-25T04:09:34.374Z,1.60
2022-12-25T04:12:54.571Z,1.37
2022-12-25T04:16:15.341Z,1.40
2022-12-25T04:19:36.393Z,1.40
2022-12-25T04:22:56.623Z,1.40
2022-12-25T04:26:18.650Z,1.60
2022-12-25T04:29:38.934Z,1.20
2022-12-25T04:32:59.838Z,1.43
2022-12-25T04:36:11.607Z,1.50
2022-12-25T04:39:14.390Z,1.40
2022-12-25T04:42:18.592Z,1.40
2022-12-25T04:45:21.812Z,1.30
2022-12-25T04:48:25.374Z,1.37
2022-12-25T04:51:28.285Z,1.70
2022-12-25T04:54:30.985Z,1.60
2022-12-25T04:57:35.415Z,1.53
2022-12-25T05:00:38.431Z,1.20
2022-12-25T05:03:41.972Z,1.77
2022-12-25T05:06:45.002Z,1.60
2022-12-25T05:09:47.833Z,1.60
2022-12-25T05:12:51.968Z,1.73
2022-12-25T05:15:55.286Z,1.50
2022-12-25T05:18:58.594Z,1.03
2022-12-25T05:22:01.583Z,1.17
2022-12-25T05:25:04.473Z,1.17
2022-12-25T05:28:09.099Z,1.20
2022-12-25T05:31:12.409Z,1.33
2022-12-25T05:34:15.257Z,1.10
2022-12-25T05:37:17.999Z,1.27
2022-12-25T05:40:20.716Z,1.20
2022-12-25T05:43:26.105Z,1.10
2022-12-25T05:46:29.123Z,1.20
2022-12-25T05:49:34.602Z,1.00
2022-12-25T05:52:37.495Z,1.10
2022-12-25T05:55:43.561Z,1.13
2022-12-25T05:58:47.853Z,1.20
2022-12-25T06:01:50.814Z,1.20
2022-12-25T06:04:53.641Z,1.10
2022-12-25T06:07:56.956Z,1.00
2022-12-25T06:10:59.917Z,0.93
2022-12-25T06:14:04.261Z,1.00
2022-12-25T06:17:07.536Z,1.23
2022-12-25T06:20:11.120Z,1.30
2022-12-25T06:23:14.169Z,1.10
2022-12-25T06:26:20.354Z,1.07
2022-12-25T06:29:24.705Z,1.13
2022-12-25T06:32:27.527Z,1.13
2022-12-25T06:35:30.653Z,0.93
2022-12-25T06:38:33.441Z,0.93
2022-12-25T06:41:36.571Z,0.93
2022-12-25T06:44:40.709Z,0.83
2022-12-25T06:47:43.544Z,1.00
2022-12-25T06:50:46.387Z,0.90
2022-12-25T06:53:49.412Z,0.70
2022-12-25T06:56:52.441Z,0.90
2022-12-25T06:59:57.203Z,0.63
2022-12-25T07:03:00.319Z,1.10
2022-12-25T07:06:03.116Z,1.00
2022-12-25T07:09:05.948Z,0.70
2022-12-25T07:12:15.915Z,0.80
2022-12-25T07:15:20.117Z,0.70
2022-12-25T07:18:23.306Z,0.73
2022-12-25T07:21:26.316Z,0.87
2022-12-25T07:24:29.088Z,0.80
2022-12-25T07:27:32.194Z,0.60
2022-12-25T07:30:36.550Z,0.70
2022-12-25T07:33:39.672Z,0.50
2022-12-25T07:36:42.559Z,0.70
2022-12-25T07:39:45.879Z,0.80
2022-12-25T07:42:48.743Z,0.70
2022-12-25T07:45:57.762Z,0.60
2022-12-25T07:49:01.250Z,0.70
2022-12-25T07:52:04.674Z,0.60
2022-12-25T07:55:08.022Z,0.90
2022-12-25T07:58:13.756Z,0.80
2022-12-25T08:01:21.899Z,0.70
2022-12-25T08:04:25.185Z,0.80
2022-12-25T08:07:28.011Z,1.17
2022-12-25T08:10:30.704Z,0.70
2022-12-25T08:13:34.664Z,0.67
2022-12-25T08:16:41.603Z,0.80
2022-12-25T08:19:44.582Z,0.60
2022-12-25T08:22:47.489Z,0.90
2022-12-25T08:25:50.676Z,0.80
2022-12-25T08:28:53.421Z,0.60
2022-12-25T08:31:57.603Z,0.50
2022-12-25T08:35:00.708Z,0.60
2022-12-25T08:38:03.693Z,0.50
2022-12-25T08:41:06.785Z,0.90
2022-12-25T08:44:09.680Z,0.83
2022-12-25T08:47:14.590Z,0.80
2022-12-25T08:50:17.805Z,0.90
2022-12-25T08:53:21.659Z,0.97
2022-12-25T08:56:24.951Z,0.40
2022-12-25T08:59:27.774Z,0.50
2022-12-25T09:02:32.989Z,0.50
2022-12-25T09:05:36.027Z,0.63
2022-12-25T09:08:45.930Z,0.50
2022-12-25T09:11:51.461Z,0.70
2022-12-25T09:14:54.700Z,0.60
2022-12-25T09:17:59.319Z,0.80
2022-12-25T09:21:07.366Z,0.63
2022-12-25T09:24:10.222Z,0.87
2022-12-25T09:27:13.506Z,0.90
2022-12-25T09:30:16.585Z,0.70
2022-12-25T09:33:21.799Z,1.07
2022-12-25T09:36:24.758Z,0.90
2022-12-25T09:39:27.718Z,0.63
2022-12-25T09:42:32.376Z,0.77
2022-12-25T09:45:38.572Z,0.80
2022-12-25T09:48:48.532Z,0.83
2022-12-25T09:51:58.055Z,0.80
2022-12-25T09:55:07.904Z,0.70
2022-12-25T09:58:13.417Z,0.73
2022-12-25T10:01:22.565Z,0.70
2022-12-25T10:04:41.732Z,0.70
2022-12-25T10:07:51.395Z,0.80
2022-12-25T10:11:01.763Z,0.70
2022-12-25T10:14:17.048Z,0.80
2022-12-25T10:17:33.054Z,1.02
2022-12-25T10:20:46.777Z,0.80
2022-12-25T10:23:54.696Z,1.07
2022-12-25T10:26:57.779Z,0.93
2022-12-25T10:30:03.429Z,1.00
2022-12-25T10:33:06.223Z,1.03
2022-12-25T10:36:11.805Z,1.30
2022-12-25T10:39:18.357Z,1.10
2022-12-25T10:42:32.146Z,1.30
2022-12-25T10:45:44.153Z,1.37
2022-12-25T10:48:50.753Z,1.17
2022-12-25T10:51:55.393Z,1.50
2022-12-25T10:54:58.254Z,1.57
2022-12-25T10:58:02.067Z,1.27
2022-12-25T11:01:07.816Z,1.63
2022-12-25T11:04:19.994Z,1.60
2022-12-25T11:07:27.717Z,1.50
2022-12-25T11:10:32.960Z,1.48
2022-12-25T11:13:40.313Z,1.70
2022-12-25T11:16:43.160Z,2.08
2022-12-25T11:19:53.409Z,1.60
2022-12-25T11:22:57.600Z,1.50
2022-12-25T11:26:02.249Z,1.60
2022-12-25T11:29:19.176Z,1.52
2022-12-25T11:32:28.909Z,1.20
2022-12-25T11:35:38.228Z,1.50
2022-12-25T11:38:42.177Z,1.55
2022-12-25T11:41:45.515Z,1.25
2022-12-25T11:44:52.927Z,1.30
2022-12-25T11:47:58.101Z,1.52
2022-12-25T11:51:03.339Z,1.52
2022-12-25T11:54:17.715Z,1.02
2022-12-25T11:57:22.622Z,1.50
2022-12-25T12:00:25.551Z,1.00
2022-12-25T12:03:32.251Z,0.93
2022-12-25T12:06:46.829Z,1.00
2022-12-25T12:09:59.849Z,0.80
2022-12-25T12:13:19.468Z,0.98
2022-12-25T12:16:22.241Z,0.80
2022-12-25T12:19:27.964Z,0.95
2022-12-25T12:22:30.704Z,0.80
2022-12-25T12:25:40.653Z,0.82
2022-12-25T12:28:46.891Z,1.05
2022-12-25T12:31:52.305Z,0.70
2022-12-25T12:34:56.290Z,0.80
2022-12-25T12:38:02.243Z,0.82
2022-12-25T12:41:09.317Z,0.98
2022-12-25T12:44:13.734Z,0.85
2022-12-25T12:47:30.545Z,0.88
2022-12-25T12:50:37.074Z,0.90
2022-12-25T12:53:41.407Z,0.90
2022-12-25T12:56:56.366Z,1.20
2022-12-25T13:00:11.321Z,0.57
2022-12-25T13:03:32.716Z,0.80
2022-12-25T13:06:41.975Z,0.75
2022-12-25T13:09:59.225Z,0.70
2022-12-25T13:13:11.504Z,0.82
2022-12-25T13:16:23.181Z,0.82
2022-12-25T13:19:28.543Z,0.75
2022-12-25T13:22:33.907Z,0.60
2022-12-25T13:25:36.747Z,0.77
2022-12-25T13:28:40.948Z,0.95
2022-12-25T13:31:43.700Z,0.60
2022-12-25T13:34:46.488Z,0.70
2022-12-25T13:37:49.798Z,0.70
2022-12-25T13:41:13.180Z,0.77
2022-12-25T13:44:22.204Z,0.60
2022-12-25T13:47:27.993Z,1.02
2022-12-25T13:50:32.790Z,0.57
2022-12-25T13:53:35.799Z,0.55
2022-12-25T13:56:38.467Z,0.80
2022-12-25T13:59:45.428Z,0.55
2022-12-25T14:02:48.672Z,0.80
2022-12-25T14:05:57.852Z,1.00
2022-12-25T14:09:01.023Z,0.95
2022-12-25T14:12:04.864Z,1.10
2022-12-25T14:15:16.981Z,0.95
2022-12-25T14:18:22.172Z,0.85
2022-12-25T14:21:29.656Z,0.85
2022-12-25T14:24:35.300Z,0.82
2022-12-25T14:27:38.144Z,0.80
2022-12-25T14:30:44.002Z,1.27
2022-12-25T14:33:48.234Z,0.75
2022-12-25T14:36:52.404Z,1.00
2022-12-25T14:39:57.053Z,0.90
2022-12-25T14:43:02.160Z,0.80
2022-12-25T14:46:07.249Z,0.55
2022-12-25T14:49:25.230Z,0.90
2022-12-25T14:52:31.553Z,0.70
2022-12-25T14:55:34.297Z,0.68
2022-12-25T14:58:42.229Z,0.77
2022-12-25T15:01:52.209Z,0.73
2022-12-25T15:04:55.537Z,0.57
2022-12-25T15:08:03.707Z,1.00
2022-12-25T15:11:06.563Z,0.85
2022-12-25T15:14:09.224Z,1.10
2022-12-25T15:17:21.477Z,1.13
2022-12-25T15:20:31.234Z,0.63
2022-12-25T15:23:33.886Z,0.77
2022-12-25T15:26:36.539Z,0.80
2022-12-25T15:30:08.348Z,1.00
2022-12-25T15:33:03.161Z,1.00
2022-12-25T15:36:06.186Z,1.00
2022-12-25T15:39:08.915Z,1.13
2022-12-25T15:42:13.495Z,1.45
2022-12-25T15:45:21.227Z,1.38
2022-12-25T15:48:25.250Z,1.50
2022-12-25T15:51:27.992Z,1.02
2022-12-25T15:54:30.637Z,0.80
2022-12-25T15:57:35.055Z,0.80
2022-12-25T16:00:37.712Z,0.80
2022-12-25T16:03:41.792Z,0.98
2022-12-25T16:06:44.658Z,1.10
2022-12-25T16:09:47.522Z,0.98
2022-12-25T16:12:50.197Z,0.80
2022-12-25T16:15:52.864Z,1.00
2022-12-25T16:18:56.982Z,1.00
2022-12-25T16:21:59.627Z,0.75
2022-12-25T16:25:02.303Z,0.93
2022-12-25T16:28:06.171Z,1.10
2022-12-25T16:31:09.254Z,1.00
2022-12-25T16:34:13.276Z,0.80
2022-12-25T16:37:15.898Z,0.87
2022-12-25T16:40:18.800Z,0.98
2022-12-25T16:43:24.204Z,0.82
2022-12-25T16:46:27.474Z,1.15
2022-12-25T16:49:31.848Z,1.10
2022-12-25T16:52:35.508Z,0.90
2022-12-25T16:55:38.666Z,0.90
2022-12-25T16:58:41.603Z,1.13
2022-12-25T17:01:44.405Z,1.08
2022-12-25T17:04:49.194Z,5.10
2022-12-25T17:07:52.072Z,6.55
2022-12-25T17:10:54.826Z,4.73
2022-12-25T17:13:58.635Z,1.90
2022-12-25T17:17:01.553Z,1.53
2022-12-25T17:20:07.327Z,1.52
2022-12-25T17:23:11.043Z,1.40
2022-12-25T17:26:13.676Z,1.40
2022-12-25T17:29:21.660Z,1.30
2022-12-25T17:32:24.879Z,1.00
2022-12-25T17:35:29.170Z,1.27
2022-12-25T17:38:32.685Z,1.42
2022-12-25T17:41:35.324Z,1.10
2022-12-25T17:44:37.997Z,1.10
2022-12-25T17:47:40.685Z,1.20
2022-12-25T17:50:44.752Z,1.08
2022-12-25T17:53:50.115Z,0.90
2022-12-25T17:56:52.775Z,1.00
2022-12-25T17:59:55.860Z,2.50
2022-12-25T18:03:02.936Z,2.28
2022-12-25T18:06:13.333Z,1.77
2022-12-25T18:09:15.980Z,1.20
2022-12-25T18:12:19.029Z,2.70
2022-12-25T18:15:21.683Z,3.35
2022-12-25T18:18:24.362Z,2.10
2022-12-25T18:21:28.424Z,1.38
2022-12-25T18:24:31.111Z,1.60
2022-12-25T18:27:33.754Z,1.38
2022-12-25T18:30:39.735Z,1.13
2022-12-25T18:33:42.431Z,1.40
2022-12-25T18:36:46.426Z,1.10
2022-12-25T18:39:49.126Z,1.10
2022-12-25T18:42:59.390Z,1.80
2022-12-25T18:46:07.176Z,1.40
2022-12-25T18:49:10.965Z,5.87
2022-12-25T18:52:50.129Z,1.60
2022-12-25T18:55:41.187Z,1.23
2022-12-25T18:58:44.306Z,1.30
2022-12-25T19:01:47.261Z,1.10
2022-12-25T19:04:50.046Z,1.17
2022-12-25T19:07:54.138Z,1.30
2022-12-25T19:10:56.758Z,1.35
2022-12-25T19:13:59.604Z,1.15
2022-12-25T19:17:02.339Z,1.58
2022-12-25T19:20:06.762Z,1.60
2022-12-25T19:23:10.835Z,1.30
2022-12-25T19:26:14.124Z,1.17
2022-12-25T19:29:16.808Z,1.08
2022-12-25T19:32:19.438Z,1.40
2022-12-25T19:35:22.231Z,1.50
2022-12-25T19:38:26.168Z,1.02
2022-12-25T19:41:28.858Z,1.10
2022-12-25T19:44:31.493Z,1.25
2022-12-25T19:47:34.133Z,1.00
2022-12-25T19:50:37.012Z,1.10
2022-12-25T19:53:41.079Z,1.55
2022-12-25T19:56:44.310Z,1.40
2022-12-25T19:59:46.936Z,1.40
2022-12-25T20:02:49.603Z,1.42
2022-12-25T20:05:52.958Z,1.42
2022-12-25T20:08:59.736Z,1.23
2022-12-25T20:12:02.821Z,1.30
2022-12-25T20:15:06.019Z,1.45
2022-12-25T20:18:08.662Z,1.70
2022-12-25T20:21:14.204Z,1.80
2022-12-25T20:24:18.257Z,1.87
2022-12-25T20:27:21.011Z,1.57
2022-12-25T20:30:23.678Z,1.90
2022-12-25T20:33:26.408Z,1.73
2022-12-25T20:36:34.627Z,2.03
2022-12-25T20:39:41.219Z,2.03
2022-12-25T20:42:44.224Z,1.77
2022-12-25T20:45:46.910Z,1.80
2022-12-25T20:48:49.559Z,1.80
2022-12-25T20:51:52.584Z,1.48
2022-12-25T20:54:56.782Z,1.48
2022-12-25T20:57:59.433Z,1.27
2022-12-25T21:01:06.361Z,1.52
2022-12-25T21:04:14.453Z,1.60
2022-12-25T21:07:18.759Z,1.40
2022-12-25T21:10:23.105Z,1.30
2022-12-25T21:13:26.120Z,1.40
2022-12-25T21:16:28.880Z,1.50
2022-12-25T21:19:31.596Z,1.70
2022-12-25T21:22:34.551Z,1.20
2022-12-25T21:25:38.756Z,1.30
2022-12-25T21:28:41.842Z,1.75
2022-12-25T21:32:02.222Z,1.40
2022-12-25T21:35:05.622Z,1.42
2022-12-25T21:38:08.345Z,1.65
2022-12-25T21:41:14.824Z,1.70
2022-12-25T21:44:17.941Z,1.60
2022-12-25T21:47:20.618Z,1.35
2022-12-25T21:50:40.920Z,1.23
2022-12-25T21:53:43.584Z,1.30
2022-12-25T21:56:49.765Z,1.17
2022-12-25T21:59:52.419Z,1.20
2022-12-25T22:02:55.431Z,1.20
2022-12-25T22:06:21.413Z,1.35
2022-12-25T22:09:25.001Z,1.35
2022-12-25T22:12:46.729Z,1.08
2022-12-25T22:16:07.129Z,1.48
2022-12-25T22:19:27.830Z,1.15
2022-12-25T22:22:31.782Z,0.98
2022-12-25T22:25:34.408Z,0.90
2022-12-25T22:28:38.387Z,1.00
2022-12-25T22:31:46.631Z,1.10
2022-12-25T22:34:49.920Z,1.30
2022-12-25T22:37:53.875Z,1.23
2022-12-25T22:40:56.569Z,1.30
2022-12-25T22:44:17.205Z,1.20
2022-12-25T22:47:20.676Z,1.10
2022-12-25T22:50:23.299Z,1.10
2022-12-25T22:53:25.973Z,1.15
2022-12-25T22:56:28.670Z,1.08
2022-12-25T22:59:33.675Z,1.20
2022-12-25T23:02:36.571Z,1.00
2022-12-25T23:05:39.453Z,1.25
2022-12-25T23:08:42.103Z,1.23
2022-12-25T23:11:45.221Z,1.38
2022-12-25T23:14:48.309Z,1.20
2022-12-25T23:18:10.721Z,1.30
2022-12-25T23:21:28.789Z,1.10
2022-12-25T23:24:49.242Z,1.17
2022-12-25T23:27:51.901Z,1.17
2022-12-25T23:30:56.617Z,1.57
2022-12-25T23:34:01.724Z,1.20
2022-12-25T23:37:07.335Z,1.20
2022-12-25T23:40:12.689Z,1.33
2022-12-25T23:43:17.515Z,1.30
2022-12-25T23:46:23.638Z,1.20
2022-12-25T23:49:29.484Z,1.30
2022-12-25T23:52:34.213Z,1.10
2022-12-25T23:55:38.950Z,1.20
2022-12-25T23:58:45.491Z,1.17
